createdAt,value
2023-02-24T00:10:18.685Z,4070.87988
2023-02-24T00:25:20.891Z,3012.49438
2023-02-24T00:40:23.331Z,2190.51074
2023-02-24T00:55:25.698Z,1305.6311
2023-02-24T01:10:29.542Z,615.94562
2023-02-24T01:25:31.894Z,162.66168
2023-02-24T01:40:34.103Z,18.43499
2023-02-24T01:55:36.455Z,1.08441
2023-02-24T02:10:38.589Z,0
2023-02-24T02:25:40.849Z,0
2023-02-24T02:40:43.074Z,0
2023-02-24T02:55:45.295Z,0
2023-02-24T03:10:48.713Z,0
2023-02-24T03:25:51.054Z,0
2023-02-24T03:40:53.436Z,0
2023-02-24T03:55:55.742Z,0
2023-02-24T04:10:59.817Z,0
2023-02-24T04:26:02.334Z,0
2023-02-24T04:41:04.723Z,0
2023-02-24T04:56:07.015Z,0
2023-02-24T05:11:09.796Z,0
2023-02-24T05:26:12.390Z,0
2023-02-24T05:41:14.640Z,0
2023-02-24T05:56:16.911Z,0
2023-02-24T06:11:19.523Z,0
2023-02-24T06:26:21.854Z,0
2023-02-24T06:41:24.066Z,0
2023-02-24T06:56:26.353Z,0
2023-02-24T07:11:28.629Z,0
2023-02-24T07:26:31.529Z,0
2023-02-24T07:41:34.467Z,0
2023-02-24T07:56:36.688Z,0
2023-02-24T08:11:38.985Z,0
2023-02-24T08:26:41.248Z,0
2023-02-24T08:41:43.576Z,0
2023-02-24T08:56:45.806Z,0
2023-02-24T09:11:48.191Z,0
2023-02-24T09:26:50.404Z,0
2023-02-24T09:41:52.665Z,0
2023-02-24T09:56:54.927Z,0
2023-02-24T10:11:57.407Z,0
2023-02-24T10:27:07.451Z,0
2023-02-24T10:42:10.456Z,0
2023-02-24T10:57:12.735Z,0
2023-02-24T11:12:15.032Z,0
2023-02-24T11:27:17.282Z,0
2023-02-24T11:42:19.559Z,0
2023-02-24T11:57:21.828Z,0
2023-02-24T12:12:24.460Z,0
2023-02-24T12:27:26.726Z,0
2023-02-24T12:42:29.238Z,0
2023-02-24T12:57:31.449Z,0
2023-02-24T13:12:33.684Z,0
2023-02-24T13:27:35.941Z,0
2023-02-24T13:42:38.137Z,0
2023-02-24T13:57:40.374Z,0
2023-02-24T14:12:42.881Z,1.08441
2023-02-24T14:27:45.092Z,27.11028
2023-02-24T14:42:47.427Z,197.36285
2023-02-24T14:57:49.641Z,635.46503
2023-02-24T15:12:51.917Z,1152.72913
2023-02-24T15:27:54.155Z,1666.74011
2023-02-24T15:42:56.474Z,3827.97168
2023-02-24T15:57:58.735Z,18541.26367
2023-02-24T16:13:00.978Z,26839.17969
2023-02-24T16:28:03.391Z,7315.43848
2023-02-24T16:43:05.710Z,12360.11914
2023-02-24T16:58:08.088Z,54106.69922
2023-02-24T17:13:10.286Z,42477.47266
2023-02-24T17:28:12.538Z,25080.26367
2023-02-24T17:43:14.829Z,31655.04883
2023-02-24T17:58:17.059Z,31276.58984
2023-02-24T18:13:19.353Z,27749
2023-02-24T18:28:21.616Z,28594.83984
2023-02-24T18:43:23.901Z,32472.69531
2023-02-24T18:58:26.102Z,26831.58789
2023-02-24T19:13:28.387Z,35476.51562
2023-02-24T19:28:30.679Z,34616.57812
2023-02-24T19:43:32.865Z,36072.94141
2023-02-24T19:58:35.104Z,31875.18555
2023-02-24T20:13:37.383Z,28320.48438
2023-02-24T20:28:39.725Z,24090.19531
2023-02-24T20:43:41.988Z,22271.63867
2023-02-24T20:58:44.348Z,21759.79688
2023-02-24T21:13:46.576Z,19148.5332
2023-02-24T21:28:48.887Z,17454.68359
2023-02-24T21:43:51.314Z,19042.26172
2023-02-24T21:58:54.409Z,18061.95312
2023-02-24T22:13:56.753Z,14900.89551
2023-02-24T22:28:59.140Z,12759.18262
2023-02-24T22:44:01.389Z,12107.45215
2023-02-24T22:59:03.697Z,9531.97461
2023-02-24T23:14:06.075Z,8206.82422
2023-02-24T23:29:08.403Z,6768.89502
2023-02-24T23:44:10.618Z,4028.58789
2023-02-24T23:59:12.831Z,3880.02344
